sensor_id;sensor_type;location;lat;lon;timestamp;temperature;humidity
39503;DHT22;26970;49.900;10.774;2024-02-23T00:01:04;8.30;99.90
39503;DHT22;26970;49.900;10.774;2024-02-23T00:03:30;8.30;99.90
39503;DHT22;26970;49.900;10.774;2024-02-23T00:05:55;8.30;99.90
39503;DHT22;26970;49.900;10.774;2024-02-23T00:08:21;8.20;99.90
39503;DHT22;26970;49.900;10.774;2024-02-23T00:10:46;8.20;99.90
39503;DHT22;26970;49.900;10.774;2024-02-23T00:13:12;8.20;99.90
39503;DHT22;26970;49.900;10.774;2024-02-23T00:15:37;8.20;99.90
39503;DHT22;26970;49.900;10.774;2024-02-23T00:18:04;8.20;99.90
39503;DHT22;26970;49.900;10.774;2024-02-23T00:20:30;8.20;99.90
39503;DHT22;26970;49.900;10.774;2024-02-23T00:22:55;8.10;99.90
39503;DHT22;26970;49.900;10.774;2024-02-23T00:25:21;8.10;99.90
39503;DHT22;26970;49.900;10.774;2024-02-23T00:27:48;8.10;99.90
39503;DHT22;26970;49.900;10.774;2024-02-23T00:30:14;8.10;99.90
39503;DHT22;26970;49.900;10.774;2024-02-23T00:32:39;8.10;99.90
39503;DHT22;26970;49.900;10.774;2024-02-23T00:35:05;8.00;99.90
39503;DHT22;26970;49.900;10.774;2024-02-23T00:37:31;8.00;99.90
39503;DHT22;26970;49.900;10.774;2024-02-23T00:40:02;8.00;99.90
39503;DHT22;26970;49.900;10.774;2024-02-23T00:42:29;7.90;99.90
39503;DHT22;26970;49.900;10.774;2024-02-23T00:44:55;7.90;99.90
39503;DHT22;26970;49.900;10.774;2024-02-23T00:47:20;7.80;99.90
39503;DHT22;26970;49.900;10.774;2024-02-23T00:49:46;7.80;99.90
39503;DHT22;26970;49.900;10.774;2024-02-23T00:52:11;7.80;99.90
39503;DHT22;26970;49.900;10.774;2024-02-23T00:54:37;7.70;99.90
39503;DHT22;26970;49.900;10.774;2024-02-23T00:57:02;7.70;99.90
39503;DHT22;26970;49.900;10.774;2024-02-23T00:59:28;7.60;99.90
39503;DHT22;26970;49.900;10.774;2024-02-23T01:01:54;7.50;99.90
39503;DHT22;26970;49.900;10.774;2024-02-23T01:04:20;7.50;99.90
39503;DHT22;26970;49.900;10.774;2024-02-23T01:06:46;7.40;99.90
39503;DHT22;26970;49.900;10.774;2024-02-23T01:09:11;7.30;99.90
39503;DHT22;26970;49.900;10.774;2024-02-23T01:11:37;7.30;99.90
39503;DHT22;26970;49.900;10.774;2024-02-23T01:14:03;7.30;99.90
39503;DHT22;26970;49.900;10.774;2024-02-23T01:16:28;7.30;99.90
39503;DHT22;26970;49.900;10.774;2024-02-23T01:18:54;7.30;99.90
39503;DHT22;26970;49.900;10.774;2024-02-23T01:21:19;7.20;99.90
39503;DHT22;26970;49.900;10.774;2024-02-23T01:23:45;7.20;99.90
39503;DHT22;26970;49.900;10.774;2024-02-23T01:26:11;7.20;99.90
39503;DHT22;26970;49.900;10.774;2024-02-23T01:28:36;7.10;99.90
39503;DHT22;26970;49.900;10.774;2024-02-23T01:31:03;7.00;99.90
39503;DHT22;26970;49.900;10.774;2024-02-23T01:33:29;7.00;99.90
39503;DHT22;26970;49.900;10.774;2024-02-23T01:35:55;7.00;99.90
39503;DHT22;26970;49.900;10.774;2024-02-23T01:38:22;7.00;99.90
39503;DHT22;26970;49.900;10.774;2024-02-23T01:40:50;6.90;99.90
39503;DHT22;26970;49.900;10.774;2024-02-23T01:43:15;6.90;99.90
39503;DHT22;26970;49.900;10.774;2024-02-23T01:45:41;6.90;99.90
39503;DHT22;26970;49.900;10.774;2024-02-23T01:48:07;6.80;99.90
39503;DHT22;26970;49.900;10.774;2024-02-23T01:50:33;6.90;99.90
39503;DHT22;26970;49.900;10.774;2024-02-23T01:53:01;6.90;99.90
39503;DHT22;26970;49.900;10.774;2024-02-23T01:55:28;6.80;99.90
39503;DHT22;26970;49.900;10.774;2024-02-23T01:57:54;6.80;99.90
39503;DHT22;26970;49.900;10.774;2024-02-23T02:00:20;6.70;99.90
39503;DHT22;26970;49.900;10.774;2024-02-23T02:02:47;6.80;99.90
39503;DHT22;26970;49.900;10.774;2024-02-23T02:05:13;6.70;99.90
39503;DHT22;26970;49.900;10.774;2024-02-23T02:07:40;6.60;99.90
39503;DHT22;26970;49.900;10.774;2024-02-23T02:10:08;6.50;99.90
39503;DHT22;26970;49.900;10.774;2024-02-23T02:12:34;6.50;99.90
39503;DHT22;26970;49.900;10.774;2024-02-23T02:15:01;6.50;99.90
39503;DHT22;26970;49.900;10.774;2024-02-23T02:17:27;6.40;99.90
39503;DHT22;26970;49.900;10.774;2024-02-23T02:19:53;6.40;99.90
39503;DHT22;26970;49.900;10.774;2024-02-23T02:22:19;6.40;99.90
39503;DHT22;26970;49.900;10.774;2024-02-23T02:24:44;6.40;99.90
39503;DHT22;26970;49.900;10.774;2024-02-23T02:27:12;6.40;99.90
39503;DHT22;26970;49.900;10.774;2024-02-23T02:29:37;6.30;99.90
39503;DHT22;26970;49.900;10.774;2024-02-23T02:32:04;6.30;99.90
39503;DHT22;26970;49.900;10.774;2024-02-23T02:34:29;6.30;99.90
39503;DHT22;26970;49.900;10.774;2024-02-23T02:36:55;6.30;99.90
39503;DHT22;26970;49.900;10.774;2024-02-23T02:39:21;6.30;99.90
39503;DHT22;26970;49.900;10.774;2024-02-23T02:41:48;6.30;99.90
39503;DHT22;26970;49.900;10.774;2024-02-23T02:44:14;6.40;99.90
39503;DHT22;26970;49.900;10.774;2024-02-23T02:46:40;6.40;99.90
39503;DHT22;26970;49.900;10.774;2024-02-23T02:49:06;6.40;99.90
39503;DHT22;26970;49.900;10.774;2024-02-23T02:51:31;6.30;99.90
39503;DHT22;26970;49.900;10.774;2024-02-23T02:53:57;6.20;99.90
39503;DHT22;26970;49.900;10.774;2024-02-23T02:56:23;6.20;99.90
39503;DHT22;26970;49.900;10.774;2024-02-23T02:58:48;6.20;99.90
39503;DHT22;26970;49.900;10.774;2024-02-23T03:01:14;6.20;99.90
39503;DHT22;26970;49.900;10.774;2024-02-23T03:03:40;6.20;99.90
39503;DHT22;26970;49.900;10.774;2024-02-23T03:06:05;6.20;99.90
39503;DHT22;26970;49.900;10.774;2024-02-23T03:08:31;6.20;99.90
39503;DHT22;26970;49.900;10.774;2024-02-23T03:10:57;6.10;99.90
39503;DHT22;26970;49.900;10.774;2024-02-23T03:13:22;6.10;99.90
39503;DHT22;26970;49.900;10.774;2024-02-23T03:15:48;6.00;99.90
39503;DHT22;26970;49.900;10.774;2024-02-23T03:18:13;6.00;99.90
39503;DHT22;26970;49.900;10.774;2024-02-23T03:20:41;5.90;99.90
39503;DHT22;26970;49.900;10.774;2024-02-23T03:23:07;5.90;99.90
39503;DHT22;26970;49.900;10.774;2024-02-23T03:25:32;5.90;99.90
39503;DHT22;26970;49.900;10.774;2024-02-23T03:27:58;5.90;99.90
39503;DHT22;26970;49.900;10.774;2024-02-23T03:30:24;5.80;99.90
39503;DHT22;26970;49.900;10.774;2024-02-23T03:32:49;5.80;99.90
39503;DHT22;26970;49.900;10.774;2024-02-23T03:35:15;5.80;99.90
39503;DHT22;26970;49.900;10.774;2024-02-23T03:37:40;5.80;99.90
39503;DHT22;26970;49.900;10.774;2024-02-23T03:40:06;5.90;99.90
39503;DHT22;26970;49.900;10.774;2024-02-23T03:42:32;5.90;99.90
39503;DHT22;26970;49.900;10.774;2024-02-23T03:44:58;5.90;99.90
39503;DHT22;26970;49.900;10.774;2024-02-23T03:47:23;6.00;99.90
39503;DHT22;26970;49.900;10.774;2024-02-23T03:49:49;6.00;99.90
39503;DHT22;26970;49.900;10.774;2024-02-23T03:52:14;6.00;99.90
39503;DHT22;26970;49.900;10.774;2024-02-23T03:54:40;5.90;99.90
39503;DHT22;26970;49.900;10.774;2024-02-23T03:57:05;5.90;99.90
39503;DHT22;26970;49.900;10.774;2024-02-23T03:59:31;5.90;99.90
39503;DHT22;26970;49.900;10.774;2024-02-23T04:01:56;5.90;99.90
39503;DHT22;26970;49.900;10.774;2024-02-23T04:04:22;5.80;99.90
39503;DHT22;26970;49.900;10.774;2024-02-23T04:06:48;5.70;99.90
39503;DHT22;26970;49.900;10.774;2024-02-23T04:09:13;5.70;99.90
39503;DHT22;26970;49.900;10.774;2024-02-23T04:11:39;5.60;99.90
39503;DHT22;26970;49.900;10.774;2024-02-23T04:14:04;5.60;99.90
39503;DHT22;26970;49.900;10.774;2024-02-23T04:16:32;5.60;99.90
39503;DHT22;26970;49.900;10.774;2024-02-23T04:18:58;5.60;99.90
39503;DHT22;26970;49.900;10.774;2024-02-23T04:21:25;5.60;99.90
39503;DHT22;26970;49.900;10.774;2024-02-23T04:23:51;5.60;99.90
39503;DHT22;26970;49.900;10.774;2024-02-23T04:26:16;5.50;99.90
39503;DHT22;26970;49.900;10.774;2024-02-23T04:28:42;5.40;99.90
39503;DHT22;26970;49.900;10.774;2024-02-23T04:31:11;5.30;99.90
39503;DHT22;26970;49.900;10.774;2024-02-23T04:33:37;5.20;99.90
39503;DHT22;26970;49.900;10.774;2024-02-23T04:36:03;5.10;99.90
39503;DHT22;26970;49.900;10.774;2024-02-23T04:38:30;5.00;99.90
39503;DHT22;26970;49.900;10.774;2024-02-23T04:40:56;5.00;99.90
39503;DHT22;26970;49.900;10.774;2024-02-23T04:43:22;4.90;99.90
39503;DHT22;26970;49.900;10.774;2024-02-23T04:45:48;4.90;99.90
39503;DHT22;26970;49.900;10.774;2024-02-23T04:48:14;4.90;99.90
39503;DHT22;26970;49.900;10.774;2024-02-23T04:50:39;4.80;99.90
39503;DHT22;26970;49.900;10.774;2024-02-23T04:53:05;4.80;99.90
39503;DHT22;26970;49.900;10.774;2024-02-23T04:55:30;4.80;99.90
39503;DHT22;26970;49.900;10.774;2024-02-23T04:57:56;4.70;99.90
39503;DHT22;26970;49.900;10.774;2024-02-23T05:00:22;4.70;99.90
39503;DHT22;26970;49.900;10.774;2024-02-23T05:02:59;4.70;99.90
39503;DHT22;26970;49.900;10.774;2024-02-23T05:05:24;4.60;99.90
39503;DHT22;26970;49.900;10.774;2024-02-23T05:07:50;4.60;99.90
39503;DHT22;26970;49.900;10.774;2024-02-23T05:10:16;4.60;99.90
39503;DHT22;26970;49.900;10.774;2024-02-23T05:12:42;4.60;99.90
39503;DHT22;26970;49.900;10.774;2024-02-23T05:15:08;4.60;99.90
39503;DHT22;26970;49.900;10.774;2024-02-23T05:17:34;4.70;99.90
39503;DHT22;26970;49.900;10.774;2024-02-23T05:19:59;4.50;99.90
39503;DHT22;26970;49.900;10.774;2024-02-23T05:22:25;4.50;99.90
39503;DHT22;26970;49.900;10.774;2024-02-23T05:24:50;4.40;99.90
39503;DHT22;26970;49.900;10.774;2024-02-23T05:27:16;4.40;99.90
39503;DHT22;26970;49.900;10.774;2024-02-23T05:29:41;4.40;99.90
39503;DHT22;26970;49.900;10.774;2024-02-23T05:32:07;4.40;99.90
39503;DHT22;26970;49.900;10.774;2024-02-23T05:34:33;4.40;99.90
39503;DHT22;26970;49.900;10.774;2024-02-23T05:37:00;4.40;99.90
39503;DHT22;26970;49.900;10.774;2024-02-23T05:39:26;4.40;99.90
39503;DHT22;26970;49.900;10.774;2024-02-23T05:41:52;4.40;99.90
39503;DHT22;26970;49.900;10.774;2024-02-23T05:44:17;4.30;99.90
39503;DHT22;26970;49.900;10.774;2024-02-23T05:46:43;4.40;99.90
39503;DHT22;26970;49.900;10.774;2024-02-23T05:49:09;4.40;99.90
39503;DHT22;26970;49.900;10.774;2024-02-23T05:51:34;4.30;99.90
39503;DHT22;26970;49.900;10.774;2024-02-23T05:54:00;4.40;99.90
39503;DHT22;26970;49.900;10.774;2024-02-23T05:56:26;4.20;99.90
39503;DHT22;26970;49.900;10.774;2024-02-23T05:58:52;4.20;99.90
39503;DHT22;26970;49.900;10.774;2024-02-23T06:01:18;4.20;99.90
39503;DHT22;26970;49.900;10.774;2024-02-23T06:03:44;4.20;99.90
39503;DHT22;26970;49.900;10.774;2024-02-23T06:06:10;4.20;99.90
39503;DHT22;26970;49.900;10.774;2024-02-23T06:08:36;4.20;99.90
39503;DHT22;26970;49.900;10.774;2024-02-23T06:11:02;4.10;99.90
39503;DHT22;26970;49.900;10.774;2024-02-23T06:13:29;4.10;99.90
39503;DHT22;26970;49.900;10.774;2024-02-23T06:15:54;4.10;99.90
39503;DHT22;26970;49.900;10.774;2024-02-23T06:18:20;4.20;99.90
39503;DHT22;26970;49.900;10.774;2024-02-23T06:20:45;4.10;99.90
39503;DHT22;26970;49.900;10.774;2024-02-23T06:23:11;4.30;99.90
39503;DHT22;26970;49.900;10.774;2024-02-23T06:25:36;4.10;99.90
39503;DHT22;26970;49.900;10.774;2024-02-23T06:28:02;4.10;99.90
39503;DHT22;26970;49.900;10.774;2024-02-23T06:30:28;4.10;99.90
39503;DHT22;26970;49.900;10.774;2024-02-23T06:32:53;4.10;99.90
39503;DHT22;26970;49.900;10.774;2024-02-23T06:35:19;4.10;99.90
39503;DHT22;26970;49.900;10.774;2024-02-23T06:37:44;4.10;99.90
39503;DHT22;26970;49.900;10.774;2024-02-23T06:40:10;4.10;99.90
39503;DHT22;26970;49.900;10.774;2024-02-23T06:42:36;4.20;99.90
39503;DHT22;26970;49.900;10.774;2024-02-23T06:45:01;4.10;99.90
39503;DHT22;26970;49.900;10.774;2024-02-23T06:47:27;4.10;99.90
39503;DHT22;26970;49.900;10.774;2024-02-23T06:49:52;4.10;99.90
39503;DHT22;26970;49.900;10.774;2024-02-23T06:52:18;4.10;99.90
39503;DHT22;26970;49.900;10.774;2024-02-23T06:54:44;4.10;99.90
39503;DHT22;26970;49.900;10.774;2024-02-23T06:57:10;4.10;99.90
39503;DHT22;26970;49.900;10.774;2024-02-23T06:59:35;4.10;99.90
39503;DHT22;26970;49.900;10.774;2024-02-23T07:02:01;4.10;99.90
39503;DHT22;26970;49.900;10.774;2024-02-23T07:04:27;4.20;99.90
39503;DHT22;26970;49.900;10.774;2024-02-23T07:06:54;4.20;99.90
39503;DHT22;26970;49.900;10.774;2024-02-23T07:09:20;4.20;99.90
39503;DHT22;26970;49.900;10.774;2024-02-23T07:11:46;4.20;99.90
39503;DHT22;26970;49.900;10.774;2024-02-23T07:14:12;4.20;99.90
39503;DHT22;26970;49.900;10.774;2024-02-23T07:16:40;4.20;99.90
39503;DHT22;26970;49.900;10.774;2024-02-23T07:19:06;4.30;99.90
39503;DHT22;26970;49.900;10.774;2024-02-23T07:21:32;4.20;99.90
39503;DHT22;26970;49.900;10.774;2024-02-23T07:23:58;4.30;99.90
39503;DHT22;26970;49.900;10.774;2024-02-23T07:26:24;4.30;99.90
39503;DHT22;26970;49.900;10.774;2024-02-23T07:28:49;4.20;99.90
39503;DHT22;26970;49.900;10.774;2024-02-23T07:31:15;4.20;99.90
39503;DHT22;26970;49.900;10.774;2024-02-23T07:33:42;4.10;99.90
39503;DHT22;26970;49.900;10.774;2024-02-23T07:36:13;4.10;99.90
39503;DHT22;26970;49.900;10.774;2024-02-23T07:38:38;4.20;99.90
39503;DHT22;26970;49.900;10.774;2024-02-23T07:41:04;4.20;99.90
39503;DHT22;26970;49.900;10.774;2024-02-23T07:43:29;4.30;99.90
39503;DHT22;26970;49.900;10.774;2024-02-23T07:45:55;4.30;99.90
39503;DHT22;26970;49.900;10.774;2024-02-23T07:48:20;4.30;99.90
39503;DHT22;26970;49.900;10.774;2024-02-23T07:50:47;4.40;99.90
39503;DHT22;26970;49.900;10.774;2024-02-23T07:53:12;4.40;99.90
39503;DHT22;26970;49.900;10.774;2024-02-23T07:55:38;4.50;99.90
39503;DHT22;26970;49.900;10.774;2024-02-23T07:58:03;4.40;99.90
39503;DHT22;26970;49.900;10.774;2024-02-23T08:00:29;4.50;99.90
39503;DHT22;26970;49.900;10.774;2024-02-23T08:02:55;4.50;99.90
39503;DHT22;26970;49.900;10.774;2024-02-23T08:05:24;4.60;99.90
39503;DHT22;26970;49.900;10.774;2024-02-23T08:07:50;4.60;99.90
39503;DHT22;26970;49.900;10.774;2024-02-23T08:10:15;4.70;99.90
39503;DHT22;26970;49.900;10.774;2024-02-23T08:12:41;4.70;99.90
39503;DHT22;26970;49.900;10.774;2024-02-23T08:15:07;4.80;99.90
39503;DHT22;26970;49.900;10.774;2024-02-23T08:17:33;4.70;99.90
39503;DHT22;26970;49.900;10.774;2024-02-23T08:19:58;4.80;99.90
39503;DHT22;26970;49.900;10.774;2024-02-23T08:22:24;4.80;99.90
39503;DHT22;26970;49.900;10.774;2024-02-23T08:24:49;4.90;99.90
39503;DHT22;26970;49.900;10.774;2024-02-23T08:27:15;4.90;99.90
39503;DHT22;26970;49.900;10.774;2024-02-23T08:29:40;4.90;99.90
39503;DHT22;26970;49.900;10.774;2024-02-23T08:32:07;4.90;99.90
39503;DHT22;26970;49.900;10.774;2024-02-23T08:34:32;5.00;99.90
39503;DHT22;26970;49.900;10.774;2024-02-23T08:37:00;4.90;99.90
39503;DHT22;26970;49.900;10.774;2024-02-23T08:39:25;5.00;99.90
39503;DHT22;26970;49.900;10.774;2024-02-23T08:41:51;5.00;99.90
39503;DHT22;26970;49.900;10.774;2024-02-23T08:44:17;5.10;99.90
39503;DHT22;26970;49.900;10.774;2024-02-23T08:46:42;5.20;99.90
39503;DHT22;26970;49.900;10.774;2024-02-23T08:49:08;5.20;99.90
39503;DHT22;26970;49.900;10.774;2024-02-23T08:51:33;5.20;99.90
39503;DHT22;26970;49.900;10.774;2024-02-23T08:53:59;5.20;99.90
39503;DHT22;26970;49.900;10.774;2024-02-23T08:56:29;5.20;99.90
39503;DHT22;26970;49.900;10.774;2024-02-23T08:58:55;5.30;99.90
39503;DHT22;26970;49.900;10.774;2024-02-23T09:01:20;5.30;99.90
39503;DHT22;26970;49.900;10.774;2024-02-23T09:03:46;5.20;99.90
39503;DHT22;26970;49.900;10.774;2024-02-23T09:06:11;5.20;99.90
39503;DHT22;26970;49.900;10.774;2024-02-23T09:08:37;5.30;99.90
39503;DHT22;26970;49.900;10.774;2024-02-23T09:11:03;5.30;99.90
39503;DHT22;26970;49.900;10.774;2024-02-23T09:13:29;5.30;99.90
39503;DHT22;26970;49.900;10.774;2024-02-23T09:15:55;5.30;99.90
39503;DHT22;26970;49.900;10.774;2024-02-23T09:18:21;5.30;99.90
39503;DHT22;26970;49.900;10.774;2024-02-23T09:20:46;5.30;99.90
39503;DHT22;26970;49.900;10.774;2024-02-23T09:23:12;5.30;99.90
39503;DHT22;26970;49.900;10.774;2024-02-23T09:25:39;5.40;99.90
39503;DHT22;26970;49.900;10.774;2024-02-23T09:28:04;5.40;99.90
39503;DHT22;26970;49.900;10.774;2024-02-23T09:30:30;5.40;99.90
39503;DHT22;26970;49.900;10.774;2024-02-23T09:32:56;5.50;99.90
39503;DHT22;26970;49.900;10.774;2024-02-23T09:35:21;5.60;99.90
39503;DHT22;26970;49.900;10.774;2024-02-23T09:37:47;5.50;99.90
39503;DHT22;26970;49.900;10.774;2024-02-23T09:40:14;5.60;99.90
39503;DHT22;26970;49.900;10.774;2024-02-23T09:42:41;5.60;99.90
39503;DHT22;26970;49.900;10.774;2024-02-23T09:45:08;5.60;99.90
39503;DHT22;26970;49.900;10.774;2024-02-23T09:47:36;5.60;99.90
39503;DHT22;26970;49.900;10.774;2024-02-23T09:50:04;5.60;99.90
39503;DHT22;26970;49.900;10.774;2024-02-23T09:52:31;5.70;99.90
39503;DHT22;26970;49.900;10.774;2024-02-23T09:54:57;5.70;99.90
39503;DHT22;26970;49.900;10.774;2024-02-23T09:57:23;5.80;99.90
39503;DHT22;26970;49.900;10.774;2024-02-23T09:59:49;5.80;99.90
39503;DHT22;26970;49.900;10.774;2024-02-23T10:02:16;5.90;99.90
39503;DHT22;26970;49.900;10.774;2024-02-23T10:04:43;5.90;99.90
39503;DHT22;26970;49.900;10.774;2024-02-23T10:07:14;5.90;99.90
39503;DHT22;26970;49.900;10.774;2024-02-23T10:09:41;5.80;99.90
39503;DHT22;26970;49.900;10.774;2024-02-23T10:12:07;5.90;99.90
39503;DHT22;26970;49.900;10.774;2024-02-23T10:14:33;5.90;99.90
39503;DHT22;26970;49.900;10.774;2024-02-23T10:16:58;6.00;99.90
39503;DHT22;26970;49.900;10.774;2024-02-23T10:19:25;5.90;99.90
39503;DHT22;26970;49.900;10.774;2024-02-23T10:21:54;5.90;99.90
39503;DHT22;26970;49.900;10.774;2024-02-23T10:24:20;6.00;99.90
39503;DHT22;26970;49.900;10.774;2024-02-23T10:26:46;6.00;99.90
39503;DHT22;26970;49.900;10.774;2024-02-23T10:29:12;6.00;99.90
39503;DHT22;26970;49.900;10.774;2024-02-23T10:31:38;6.00;99.90
39503;DHT22;26970;49.900;10.774;2024-02-23T10:34:11;6.10;99.90
39503;DHT22;26970;49.900;10.774;2024-02-23T10:36:42;6.20;99.90
39503;DHT22;26970;49.900;10.774;2024-02-23T10:39:08;6.20;99.90
39503;DHT22;26970;49.900;10.774;2024-02-23T10:41:39;6.20;99.90
39503;DHT22;26970;49.900;10.774;2024-02-23T10:44:09;6.10;99.90
39503;DHT22;26970;49.900;10.774;2024-02-23T10:46:37;6.30;99.90
39503;DHT22;26970;49.900;10.774;2024-02-23T10:49:02;6.30;99.90
39503;DHT22;26970;49.900;10.774;2024-02-23T10:51:30;6.30;99.90
39503;DHT22;26970;49.900;10.774;2024-02-23T10:53:57;6.30;99.90
39503;DHT22;26970;49.900;10.774;2024-02-23T10:56:22;6.30;99.90
39503;DHT22;26970;49.900;10.774;2024-02-23T10:58:49;6.30;99.90
39503;DHT22;26970;49.900;10.774;2024-02-23T11:01:16;6.30;99.90
39503;DHT22;26970;49.900;10.774;2024-02-23T11:03:44;6.30;99.90
39503;DHT22;26970;49.900;10.774;2024-02-23T11:06:15;6.40;99.90
39503;DHT22;26970;49.900;10.774;2024-02-23T11:08:46;6.50;99.90
39503;DHT22;26970;49.900;10.774;2024-02-23T11:11:12;6.50;99.90
39503;DHT22;26970;49.900;10.774;2024-02-23T11:13:40;6.60;99.90
39503;DHT22;26970;49.900;10.774;2024-02-23T11:16:06;6.60;99.90
39503;DHT22;26970;49.900;10.774;2024-02-23T11:18:35;6.60;99.90
39503;DHT22;26970;49.900;10.774;2024-02-23T11:21:02;6.50;99.90
39503;DHT22;26970;49.900;10.774;2024-02-23T11:23:44;6.50;99.90
39503;DHT22;26970;49.900;10.774;2024-02-23T11:26:11;6.50;99.90
39503;DHT22;26970;49.900;10.774;2024-02-23T11:28:57;6.50;99.90
39503;DHT22;26970;49.900;10.774;2024-02-23T11:31:24;6.40;99.90
39503;DHT22;26970;49.900;10.774;2024-02-23T11:33:54;6.40;99.90
39503;DHT22;26970;49.900;10.774;2024-02-23T11:36:32;6.40;99.90
39503;DHT22;26970;49.900;10.774;2024-02-23T11:39:00;6.30;99.90
39503;DHT22;26970;49.900;10.774;2024-02-23T11:41:27;6.30;99.90
39503;DHT22;26970;49.900;10.774;2024-02-23T11:43:53;6.30;99.90
39503;DHT22;26970;49.900;10.774;2024-02-23T11:46:20;6.30;99.90
39503;DHT22;26970;49.900;10.774;2024-02-23T11:48:46;6.30;99.90
39503;DHT22;26970;49.900;10.774;2024-02-23T11:51:15;6.30;99.90
39503;DHT22;26970;49.900;10.774;2024-02-23T11:53:42;6.20;99.90
39503;DHT22;26970;49.900;10.774;2024-02-23T11:56:07;6.30;99.90
39503;DHT22;26970;49.900;10.774;2024-02-23T11:58:34;6.30;99.90
39503;DHT22;26970;49.900;10.774;2024-02-23T12:01:03;6.30;99.90
39503;DHT22;26970;49.900;10.774;2024-02-23T12:03:29;6.30;99.90
39503;DHT22;26970;49.900;10.774;2024-02-23T12:06:02;6.40;99.90
39503;DHT22;26970;49.900;10.774;2024-02-23T12:08:30;6.30;99.90
39503;DHT22;26970;49.900;10.774;2024-02-23T12:11:04;6.30;99.90
39503;DHT22;26970;49.900;10.774;2024-02-23T12:13:30;6.30;99.90
39503;DHT22;26970;49.900;10.774;2024-02-23T12:15:55;6.30;99.90
39503;DHT22;26970;49.900;10.774;2024-02-23T12:18:24;6.40;99.90
39503;DHT22;26970;49.900;10.774;2024-02-23T12:20:52;6.50;99.90
39503;DHT22;26970;49.900;10.774;2024-02-23T12:23:17;6.40;99.90
39503;DHT22;26970;49.900;10.774;2024-02-23T12:25:59;6.40;99.90
39503;DHT22;26970;49.900;10.774;2024-02-23T12:28:26;6.50;99.90
39503;DHT22;26970;49.900;10.774;2024-02-23T12:31:01;6.50;99.90
39503;DHT22;26970;49.900;10.774;2024-02-23T12:33:28;6.50;99.90
39503;DHT22;26970;49.900;10.774;2024-02-23T12:35:55;6.60;99.90
39503;DHT22;26970;49.900;10.774;2024-02-23T12:38:21;6.70;99.90
39503;DHT22;26970;49.900;10.774;2024-02-23T12:40:47;6.80;99.90
39503;DHT22;26970;49.900;10.774;2024-02-23T12:43:13;6.70;99.90
39503;DHT22;26970;49.900;10.774;2024-02-23T12:45:38;6.80;99.90
39503;DHT22;26970;49.900;10.774;2024-02-23T12:48:04;6.80;99.90
39503;DHT22;26970;49.900;10.774;2024-02-23T12:50:30;6.80;99.90
39503;DHT22;26970;49.900;10.774;2024-02-23T12:52:56;6.70;99.90
39503;DHT22;26970;49.900;10.774;2024-02-23T12:55:22;6.70;99.90
39503;DHT22;26970;49.900;10.774;2024-02-23T12:57:48;6.70;99.90
39503;DHT22;26970;49.900;10.774;2024-02-23T13:00:14;6.70;99.90
39503;DHT22;26970;49.900;10.774;2024-02-23T13:02:40;6.70;99.90
39503;DHT22;26970;49.900;10.774;2024-02-23T13:05:05;6.70;99.90
39503;DHT22;26970;49.900;10.774;2024-02-23T13:07:32;6.70;99.90
39503;DHT22;26970;49.900;10.774;2024-02-23T13:09:57;6.70;99.90
39503;DHT22;26970;49.900;10.774;2024-02-23T13:12:23;6.80;99.90
39503;DHT22;26970;49.900;10.774;2024-02-23T13:14:50;6.90;99.90
39503;DHT22;26970;49.900;10.774;2024-02-23T13:17:16;6.80;99.90
39503;DHT22;26970;49.900;10.774;2024-02-23T13:19:42;6.80;99.90
39503;DHT22;26970;49.900;10.774;2024-02-23T13:22:08;6.90;99.90
39503;DHT22;26970;49.900;10.774;2024-02-23T13:24:34;6.90;99.90
39503;DHT22;26970;49.900;10.774;2024-02-23T13:27:00;7.00;99.90
39503;DHT22;26970;49.900;10.774;2024-02-23T13:29:25;7.00;99.90
39503;DHT22;26970;49.900;10.774;2024-02-23T13:31:51;6.90;99.90
39503;DHT22;26970;49.900;10.774;2024-02-23T13:34:17;6.90;99.90
39503;DHT22;26970;49.900;10.774;2024-02-23T13:36:43;6.90;99.90
39503;DHT22;26970;49.900;10.774;2024-02-23T13:39:09;7.00;99.90
39503;DHT22;26970;49.900;10.774;2024-02-23T13:41:35;7.00;99.90
39503;DHT22;26970;49.900;10.774;2024-02-23T13:44:00;7.00;99.90
39503;DHT22;26970;49.900;10.774;2024-02-23T13:46:26;7.10;99.90
39503;DHT22;26970;49.900;10.774;2024-02-23T13:49:03;7.00;99.90
39503;DHT22;26970;49.900;10.774;2024-02-23T13:51:29;7.00;99.90
39503;DHT22;26970;49.900;10.774;2024-02-23T13:53:55;7.10;99.90
39503;DHT22;26970;49.900;10.774;2024-02-23T13:56:21;7.10;99.90
39503;DHT22;26970;49.900;10.774;2024-02-23T13:58:46;7.00;99.90
39503;DHT22;26970;49.900;10.774;2024-02-23T14:01:13;7.00;99.90
39503;DHT22;26970;49.900;10.774;2024-02-23T14:03:39;6.90;99.90
39503;DHT22;26970;49.900;10.774;2024-02-23T14:06:04;6.90;99.90
39503;DHT22;26970;49.900;10.774;2024-02-23T14:08:30;6.80;99.90
39503;DHT22;26970;49.900;10.774;2024-02-23T14:10:56;6.90;99.90
39503;DHT22;26970;49.900;10.774;2024-02-23T14:13:22;6.90;99.90
39503;DHT22;26970;49.900;10.774;2024-02-23T14:15:48;6.90;99.90
39503;DHT22;26970;49.900;10.774;2024-02-23T14:18:14;6.90;99.90
39503;DHT22;26970;49.900;10.774;2024-02-23T14:20:39;6.90;99.90
39503;DHT22;26970;49.900;10.774;2024-02-23T14:23:05;6.90;99.90
39503;DHT22;26970;49.900;10.774;2024-02-23T14:25:31;6.90;99.90
39503;DHT22;26970;49.900;10.774;2024-02-23T14:27:56;6.90;99.90
39503;DHT22;26970;49.900;10.774;2024-02-23T14:30:22;6.80;99.90
39503;DHT22;26970;49.900;10.774;2024-02-23T14:32:48;6.80;99.90
39503;DHT22;26970;49.900;10.774;2024-02-23T14:35:13;6.80;99.90
39503;DHT22;26970;49.900;10.774;2024-02-23T14:37:39;6.80;99.90
39503;DHT22;26970;49.900;10.774;2024-02-23T14:40:05;6.80;99.90
39503;DHT22;26970;49.900;10.774;2024-02-23T14:42:30;6.80;99.90
39503;DHT22;26970;49.900;10.774;2024-02-23T14:44:56;6.80;99.90
39503;DHT22;26970;49.900;10.774;2024-02-23T14:47:22;6.70;99.90
39503;DHT22;26970;49.900;10.774;2024-02-23T14:49:47;6.70;99.90
39503;DHT22;26970;49.900;10.774;2024-02-23T14:52:15;6.70;99.90
39503;DHT22;26970;49.900;10.774;2024-02-23T14:54:41;6.70;99.90
39503;DHT22;26970;49.900;10.774;2024-02-23T14:57:06;6.70;99.90
39503;DHT22;26970;49.900;10.774;2024-02-23T14:59:33;6.70;99.90
39503;DHT22;26970;49.900;10.774;2024-02-23T15:02:01;6.60;99.90
39503;DHT22;26970;49.900;10.774;2024-02-23T15:04:27;6.60;99.90
39503;DHT22;26970;49.900;10.774;2024-02-23T15:06:53;6.60;99.90
39503;DHT22;26970;49.900;10.774;2024-02-23T15:09:19;6.60;99.90
39503;DHT22;26970;49.900;10.774;2024-02-23T15:11:44;6.60;99.90
39503;DHT22;26970;49.900;10.774;2024-02-23T15:14:10;6.60;99.90
39503;DHT22;26970;49.900;10.774;2024-02-23T15:16:36;6.60;99.90
39503;DHT22;26970;49.900;10.774;2024-02-23T15:19:02;6.50;99.90
39503;DHT22;26970;49.900;10.774;2024-02-23T15:21:27;6.50;99.90
39503;DHT22;26970;49.900;10.774;2024-02-23T15:23:53;6.40;99.90